createdAt,value
2023-01-31T00:00:49.492Z,97478.97
2023-01-31T00:03:21.185Z,97478.44
2023-01-31T00:05:50.879Z,97477.34
2023-01-31T00:08:19.331Z,97487.28
2023-01-31T00:10:47.620Z,97486.78
2023-01-31T00:13:16.317Z,97481.13
2023-01-31T00:15:44.982Z,97485.13
2023-01-31T00:18:16.854Z,97478.69
2023-01-31T00:20:45.082Z,97490.47
2023-01-31T00:23:14.705Z,97485.34
2023-01-31T00:25:43.135Z,97480.31
2023-01-31T00:28:11.432Z,97477.88
2023-01-31T00:30:39.943Z,97478.38
2023-01-31T00:33:08.339Z,97475.41
2023-01-31T00:35:40.756Z,97483.19
2023-01-31T00:38:09.237Z,97466.19
2023-01-31T00:40:38.945Z,97482.34
2023-01-31T00:43:08.039Z,97493.63
2023-01-31T00:45:37.028Z,97478.41
2023-01-31T00:48:06.121Z,97488.66
2023-01-31T00:50:35.229Z,97490.63
2023-01-31T00:53:03.678Z,97489.06
2023-01-31T00:55:32.785Z,97493.88
2023-01-31T00:58:02.467Z,97489.06
2023-01-31T01:00:31.615Z,97500.91
2023-01-31T01:03:00.161Z,97500.91
2023-01-31T01:05:29.038Z,97511.09
2023-01-31T01:07:57.451Z,97501.91
2023-01-31T01:10:26.232Z,97513.00
2023-01-31T01:12:54.721Z,97522.19
2023-01-31T01:15:24.398Z,97513.84
2023-01-31T01:17:53.034Z,97512.75
2023-01-31T01:20:21.634Z,97514.66
2023-01-31T01:22:50.187Z,97514.44
2023-01-31T01:25:22.346Z,97523.03
2023-01-31T01:27:50.881Z,97521.16
2023-01-31T01:30:20.320Z,97536.97
2023-01-31T01:32:50.305Z,97533.25
2023-01-31T01:35:18.977Z,97538.69
2023-01-31T01:37:47.464Z,97532.00
2023-01-31T01:40:15.841Z,97539.00
2023-01-31T01:42:44.157Z,97536.06
2023-01-31T01:45:18.834Z,97542.03
2023-01-31T01:47:53.921Z,97541.75
2023-01-31T01:50:29.012Z,97533.66
2023-01-31T01:53:02.945Z,97528.84
2023-01-31T01:55:37.206Z,97537.25
2023-01-31T01:58:14.704Z,97519.44
2023-01-31T02:00:46.580Z,97531.28
2023-01-31T02:03:17.727Z,97531.81
2023-01-31T02:05:51.847Z,97537.19
2023-01-31T02:08:25.372Z,97545.53
2023-01-31T02:11:00.092Z,97552.22
2023-01-31T02:13:30.819Z,97550.88
2023-01-31T02:16:00.145Z,97550.13
2023-01-31T02:18:30.147Z,97544.72
2023-01-31T02:21:45.946Z,97554.66
2023-01-31T02:25:12.991Z,97551.97
2023-01-31T02:28:38.629Z,97563.00
2023-01-31T02:32:05.599Z,97557.13
2023-01-31T02:34:50.119Z,97564.41
2023-01-31T02:37:34.927Z,97560.38
2023-01-31T02:40:12.683Z,97556.56
2023-01-31T02:42:58.405Z,97562.25
2023-01-31T02:45:40.756Z,97569.25
2023-01-31T02:48:31.283Z,97563.00
2023-01-31T02:51:09.623Z,97561.44
2023-01-31T02:53:48.311Z,97570.03
2023-01-31T02:56:24.953Z,97579.94
2023-01-31T02:59:00.538Z,97574.31
2023-01-31T03:01:34.358Z,97580.13
2023-01-31T03:04:07.990Z,97578.28
2023-01-31T03:07:01.890Z,97575.59
2023-01-31T03:10:00.085Z,97568.00
2023-01-31T03:12:53.380Z,97573.94
2023-01-31T03:16:01.253Z,97579.09
2023-01-31T03:18:38.369Z,97593.59
2023-01-31T03:21:14.245Z,97600.34
2023-01-31T03:23:56.901Z,97606.53
2023-01-31T03:26:28.328Z,97608.66
2023-01-31T03:29:02.209Z,97612.91
2023-01-31T03:31:37.602Z,97615.06
2023-01-31T03:34:11.518Z,97614.50
2023-01-31T03:36:49.233Z,97616.34
2023-01-31T03:39:46.012Z,97622.09
2023-01-31T03:42:25.377Z,97628.28
2023-01-31T03:45:05.712Z,97628.03
2023-01-31T03:47:40.141Z,97628.28
2023-01-31T03:50:18.111Z,97637.41
2023-01-31T03:52:54.566Z,97646.09
2023-01-31T03:55:35.958Z,97652.28
2023-01-31T03:58:07.919Z,97652.84
2023-01-31T04:00:43.343Z,97649.66
2023-01-31T04:03:19.682Z,97660.44
2023-01-31T04:05:49.474Z,97653.41
2023-01-31T04:08:18.949Z,97658.72
2023-01-31T04:10:58.700Z,97657.69
2023-01-31T04:13:27.159Z,97661.44
2023-01-31T04:15:55.849Z,97665.19
2023-01-31T04:18:24.215Z,97669.50
2023-01-31T04:20:52.567Z,97674.97
2023-01-31T04:23:21.004Z,97666.81
2023-01-31T04:25:49.306Z,97667.91
2023-01-31T04:28:19.004Z,97670.59
2023-01-31T04:30:48.072Z,97672.44
2023-01-31T04:33:17.022Z,97671.16
2023-01-31T04:35:45.647Z,97671.72
2023-01-31T04:38:14.031Z,97674.09
2023-01-31T04:40:42.414Z,97681.38
2023-01-31T04:43:10.906Z,97677.03
2023-01-31T04:45:40.616Z,97692.72
2023-01-31T04:48:11.308Z,97679.66
2023-01-31T04:50:39.805Z,97696.41
2023-01-31T04:53:09.473Z,97690.50
2023-01-31T04:55:38.001Z,97697.47
2023-01-31T04:58:07.607Z,97699.41
2023-01-31T05:00:36.575Z,97707.25
2023-01-31T05:03:06.517Z,97703.75
2023-01-31T05:05:36.439Z,97708.31
2023-01-31T05:08:05.733Z,97706.19
2023-01-31T05:10:36.496Z,97701.34
2023-01-31T05:13:05.163Z,97712.63
2023-01-31T05:15:33.679Z,97708.63
2023-01-31T05:18:04.551Z,97709.94
2023-01-31T05:20:39.828Z,97703.50
2023-01-31T05:23:08.696Z,97715.31
2023-01-31T05:25:38.909Z,97713.72
2023-01-31T05:28:07.278Z,97707.66
2023-01-31T05:30:40.041Z,97710.13
2023-01-31T05:33:08.483Z,97700.41
2023-01-31T05:35:39.380Z,97706.63
2023-01-31T05:38:08.082Z,97703.34
2023-01-31T05:40:37.482Z,97705.81
2023-01-31T05:43:06.586Z,97692.56
2023-01-31T05:45:35.580Z,97691.44
2023-01-31T05:48:05.325Z,97685.53
2023-01-31T05:50:33.771Z,97684.66
2023-01-31T05:53:12.222Z,97678.94
2023-01-31T05:55:40.639Z,97682.72
2023-01-31T05:58:09.077Z,97680.59
2023-01-31T06:00:37.553Z,97689.72
2023-01-31T06:03:05.897Z,97691.59
2023-01-31T06:05:34.415Z,97680.50
2023-01-31T06:08:02.887Z,97686.63
2023-01-31T06:10:33.237Z,97693.41
2023-01-31T06:13:01.617Z,97689.66
2023-01-31T06:15:30.838Z,97702.47
2023-01-31T06:17:59.929Z,97710.97
2023-01-31T06:20:29.136Z,97711.16
2023-01-31T06:23:01.135Z,97715.94
2023-01-31T06:25:29.689Z,97714.81
2023-01-31T06:27:59.413Z,97722.41
2023-01-31T06:30:28.058Z,97719.72
2023-01-31T06:32:56.449Z,97718.78
2023-01-31T06:35:24.690Z,97727.78
2023-01-31T06:37:54.108Z,97730.00
2023-01-31T06:40:22.486Z,97727.78
2023-01-31T06:42:50.709Z,97738.06
2023-01-31T06:45:20.917Z,97730.56
2023-01-31T06:47:50.176Z,97724.38
2023-01-31T06:50:19.613Z,97728.09
2023-01-31T06:52:47.952Z,97728.34
2023-01-31T06:55:16.879Z,97721.91
2023-01-31T06:57:48.944Z,97732.94
2023-01-31T07:00:20.526Z,97729.16
2023-01-31T07:02:49.994Z,97737.25
2023-01-31T07:05:19.312Z,97739.94
2023-01-31T07:07:49.873Z,97736.44
2023-01-31T07:10:19.177Z,97734.53
2023-01-31T07:12:47.623Z,97740.16
2023-01-31T07:15:15.980Z,97741.81
2023-01-31T07:17:45.998Z,97735.38
2023-01-31T07:20:14.967Z,97747.53
2023-01-31T07:22:43.772Z,97746.72
2023-01-31T07:25:12.108Z,97747.84
2023-01-31T07:27:40.799Z,97746.72
2023-01-31T07:30:11.172Z,97749.16
2023-01-31T07:32:39.837Z,97755.03
2023-01-31T07:35:10.985Z,97749.66
2023-01-31T07:37:40.745Z,97746.63
2023-01-31T07:40:11.208Z,97751.53
2023-01-31T07:42:40.742Z,97746.72
2023-01-31T07:45:22.796Z,97749.72
2023-01-31T07:47:52.094Z,97751.63
2023-01-31T07:50:27.391Z,97757.81
2023-01-31T07:52:58.133Z,97764.84
2023-01-31T07:55:26.672Z,97761.31
2023-01-31T07:57:55.069Z,97772.09
2023-01-31T08:00:41.766Z,97768.09
2023-01-31T08:03:34.732Z,97757.97
2023-01-31T08:06:10.048Z,97765.75
2023-01-31T08:08:39.780Z,97764.19
2023-01-31T08:11:08.719Z,97756.91
2023-01-31T08:13:38.572Z,97763.44
2023-01-31T08:16:10.384Z,97764.00
2023-01-31T08:18:39.739Z,97768.34
2023-01-31T08:21:13.584Z,97760.75
2023-01-31T08:23:42.136Z,97768.41
2023-01-31T08:26:15.789Z,97771.69
2023-01-31T08:28:45.651Z,97774.94
2023-01-31T08:31:17.281Z,97771.50
2023-01-31T08:33:45.799Z,97778.75
2023-01-31T08:36:24.210Z,97785.88
2023-01-31T08:38:53.415Z,97779.84
2023-01-31T08:41:24.548Z,97774.31
2023-01-31T08:43:58.064Z,97776.72
2023-01-31T08:46:32.704Z,97779.84
2023-01-31T08:49:02.287Z,97777.13
2023-01-31T08:51:32.632Z,97777.00
2023-01-31T08:54:01.133Z,97782.63
2023-01-31T08:56:30.235Z,97787.09
2023-01-31T08:58:59.079Z,97790.31
2023-01-31T09:01:27.647Z,97783.75
2023-01-31T09:03:57.257Z,97808.34
2023-01-31T09:06:30.139Z,97795.16
2023-01-31T09:09:00.364Z,97796.63
2023-01-31T09:11:31.579Z,97800.91
2023-01-31T09:14:00.630Z,97792.88
2023-01-31T09:16:29.317Z,97790.75
2023-01-31T09:18:58.242Z,97790.56
2023-01-31T09:21:26.677Z,97778.06
2023-01-31T09:24:03.709Z,97783.63
2023-01-31T09:26:33.293Z,97787.63
2023-01-31T09:29:02.269Z,97782.56
2023-01-31T09:31:31.541Z,97781.38
2023-01-31T09:34:00.926Z,97776.38
2023-01-31T09:36:30.203Z,97774.91
2023-01-31T09:39:00.910Z,97780.56
2023-01-31T09:41:36.941Z,97771.72
2023-01-31T09:44:12.360Z,97780.63
2023-01-31T09:46:45.959Z,97791.28
2023-01-31T09:49:23.189Z,97791.09
2023-01-31T09:52:01.089Z,97790.38
2023-01-31T09:54:38.740Z,97793.88
2023-01-31T09:57:24.400Z,97795.84
2023-01-31T10:00:07.570Z,97788.59
2023-01-31T10:03:11.372Z,97790.38
2023-01-31T10:05:50.977Z,97781.81
2023-01-31T10:08:41.472Z,97780.75
2023-01-31T10:11:16.886Z,97765.69
2023-01-31T10:13:51.104Z,97753.53
2023-01-31T10:16:32.641Z,97763.88
2023-01-31T10:19:06.955Z,97758.78
2023-01-31T10:21:44.048Z,97758.41
2023-01-31T10:24:22.387Z,97750.13
2023-01-31T10:27:01.685Z,97750.75
2023-01-31T10:29:39.664Z,97755.59
2023-01-31T10:32:20.662Z,97744.66
2023-01-31T10:34:56.531Z,97735.94
2023-01-31T10:37:36.892Z,97744.59
2023-01-31T10:40:17.379Z,97740.94
2023-01-31T10:42:55.059Z,97739.13
2023-01-31T10:45:31.055Z,97728.91
2023-01-31T10:48:15.737Z,97721.94
2023-01-31T10:50:59.348Z,97711.56
2023-01-31T10:53:59.521Z,97706.69
2023-01-31T10:56:34.688Z,97716.41
2023-01-31T10:59:13.217Z,97714.31
2023-01-31T11:01:42.196Z,97695.44
2023-01-31T11:04:27.054Z,97692.81
2023-01-31T11:06:56.087Z,97691.31
2023-01-31T11:09:29.216Z,97684.69
2023-01-31T11:12:01.408Z,97683.00
2023-01-31T11:14:36.384Z,97681.63
2023-01-31T11:17:10.727Z,97680.56
2023-01-31T11:19:45.457Z,97680.44
2023-01-31T11:22:25.813Z,97666.47
2023-01-31T11:24:56.932Z,97661.38
2023-01-31T11:27:32.971Z,97658.91
2023-01-31T11:30:04.377Z,97668.44
2023-01-31T11:32:37.507Z,97660.56
2023-01-31T11:35:23.808Z,97661.94
2023-01-31T11:37:55.407Z,97652.06
2023-01-31T11:40:31.417Z,97649.00
2023-01-31T11:43:02.630Z,97636.19
2023-01-31T11:45:35.599Z,97635.94
2023-01-31T11:48:12.280Z,97642.34
2023-01-31T11:50:44.767Z,97628.00
2023-01-31T11:53:21.554Z,97637.00
2023-01-31T11:55:54.399Z,97626.97
2023-01-31T11:58:27.600Z,97628.66
2023-01-31T12:01:02.786Z,97630.53
2023-01-31T12:03:32.088Z,97647.59
2023-01-31T12:06:06.260Z,97652.44
2023-01-31T12:08:38.150Z,97635.47
2023-01-31T12:11:24.140Z,97635.47
2023-01-31T12:13:55.160Z,97627.94
2023-01-31T12:16:30.396Z,97617.66
2023-01-31T12:19:21.851Z,97624.03
2023-01-31T12:22:04.071Z,97620.81
2023-01-31T12:24:44.914Z,97618.00
2023-01-31T12:27:31.650Z,97619.38
2023-01-31T12:30:30.830Z,97602.66
2023-01-31T12:33:19.071Z,97588.88
2023-01-31T12:36:05.868Z,97584.50
2023-01-31T12:39:04.256Z,97577.16
2023-01-31T12:41:40.412Z,97566.59
2023-01-31T12:44:39.659Z,97564.16
2023-01-31T12:47:55.275Z,97540.34
2023-01-31T12:50:47.351Z,97546.88
2023-01-31T12:53:56.886Z,97550.63
2023-01-31T12:56:47.925Z,97544.94
2023-01-31T12:59:40.726Z,97535.44
2023-01-31T13:02:41.848Z,97532.47
2023-01-31T13:05:28.165Z,97527.34
2023-01-31T13:08:06.479Z,97528.13
2023-01-31T13:10:41.561Z,97518.44
2023-01-31T13:13:22.027Z,97531.38
2023-01-31T13:15:56.568Z,97525.75
2023-01-31T13:18:25.974Z,97529.00
2023-01-31T13:21:00.154Z,97517.38
2023-01-31T13:23:41.400Z,97509.28
2023-01-31T13:26:17.242Z,97494.66
2023-01-31T13:28:51.701Z,97499.50
2023-01-31T13:31:26.318Z,97491.41
2023-01-31T13:34:05.956Z,97491.38
2023-01-31T13:36:41.565Z,97502.19
2023-01-31T13:39:21.385Z,97503.25
2023-01-31T13:41:49.919Z,97500.81
2023-01-31T13:44:18.463Z,97506.50
2023-01-31T13:46:53.830Z,97499.47
2023-01-31T13:49:30.289Z,97505.41
2023-01-31T13:52:03.386Z,97504.59
2023-01-31T13:54:42.016Z,97502.41
2023-01-31T13:57:26.635Z,97514.25
2023-01-31T14:00:00.256Z,97515.09
2023-01-31T14:02:29.908Z,97516.16
2023-01-31T14:05:28.229Z,97507.78
2023-01-31T14:08:32.538Z,97531.31
2023-01-31T14:11:04.729Z,97505.59
2023-01-31T14:13:45.517Z,97500.75
2023-01-31T14:16:42.550Z,97501.56
2023-01-31T14:20:03.457Z,97516.13
2023-01-31T14:22:35.143Z,97496.16
2023-01-31T14:25:14.568Z,97485.59
2023-01-31T14:28:01.512Z,97485.38
2023-01-31T14:30:47.848Z,97478.91
2023-01-31T14:33:26.735Z,97472.13
2023-01-31T14:36:27.610Z,97468.06
2023-01-31T14:40:04.050Z,97474.81
2023-01-31T14:43:01.355Z,97478.06
2023-01-31T14:46:08.686Z,97486.97
2023-01-31T14:49:21.901Z,97466.97
2023-01-31T14:52:20.154Z,97486.44
2023-01-31T14:55:23.877Z,97479.13
2023-01-31T14:57:59.041Z,97482.06
2023-01-31T15:00:32.511Z,97468.03
2023-01-31T15:03:08.602Z,97460.47
2023-01-31T15:05:47.169Z,97455.31
2023-01-31T15:08:39.461Z,97454.50
2023-01-31T15:11:14.868Z,97451.78
2023-01-31T15:13:49.010Z,97449.09
2023-01-31T15:16:23.757Z,97435.59
2023-01-31T15:19:01.085Z,97438.31
2023-01-31T15:21:33.625Z,97449.13
2023-01-31T15:24:02.835Z,97449.91
2023-01-31T15:26:36.077Z,97457.75
2023-01-31T15:29:06.422Z,97460.19
2023-01-31T15:31:44.494Z,97456.41
2023-01-31T15:34:21.891Z,97450.22
2023-01-31T15:37:04.654Z,97432.34
2023-01-31T15:39:42.498Z,97433.16
2023-01-31T15:42:26.408Z,97433.69
2023-01-31T15:45:23.276Z,97437.22
2023-01-31T15:48:00.832Z,97441.78
2023-01-31T15:50:35.249Z,97450.16
2023-01-31T15:53:05.710Z,97447.44
2023-01-31T15:55:37.624Z,97459.34
2023-01-31T15:58:07.629Z,97457.16
2023-01-31T16:00:39.681Z,97467.97
2023-01-31T16:03:09.379Z,97460.91
2023-01-31T16:05:41.843Z,97466.03
2023-01-31T16:08:22.568Z,97459.25
2023-01-31T16:10:51.437Z,97459.00
2023-01-31T16:13:21.504Z,97453.88
2023-01-31T16:15:52.288Z,97447.13
2023-01-31T16:18:21.381Z,97466.81
2023-01-31T16:20:52.939Z,97459.81
2023-01-31T16:23:34.434Z,97459.25
2023-01-31T16:26:09.930Z,97463.34
2023-01-31T16:28:42.028Z,97473.88
2023-01-31T16:31:15.645Z,97475.72
2023-01-31T16:33:51.492Z,97481.38
2023-01-31T16:36:25.979Z,97469.81
2023-01-31T16:39:01.760Z,97469.53
2023-01-31T16:41:50.577Z,97469.78
2023-01-31T16:44:26.689Z,97464.13
2023-01-31T16:46:56.693Z,97467.66
2023-01-31T16:49:27.692Z,97473.56
2023-01-31T16:51:58.986Z,97467.66
2023-01-31T16:54:31.933Z,97467.38
2023-01-31T16:57:20.838Z,97473.91
2023-01-31T16:59:54.830Z,97476.34
2023-01-31T17:02:36.175Z,97476.88
2023-01-31T17:05:19.466Z,97473.13
2023-01-31T17:07:50.792Z,97470.94
2023-01-31T17:10:23.728Z,97472.28
2023-01-31T17:12:56.589Z,97473.06
2023-01-31T17:15:25.489Z,97477.16
2023-01-31T17:17:55.345Z,97468.47
2023-01-31T17:20:24.296Z,97480.88
2023-01-31T17:23:02.249Z,97481.47
2023-01-31T17:25:36.445Z,97491.16
2023-01-31T17:28:05.797Z,97470.09
2023-01-31T17:30:35.610Z,97486.28
2023-01-31T17:33:05.399Z,97474.16
2023-01-31T17:35:38.810Z,97475.50
2023-01-31T17:38:07.474Z,97470.91
2023-01-31T17:40:36.485Z,97464.97
2023-01-31T17:43:06.623Z,97479.06
2023-01-31T17:45:35.085Z,97477.41
2023-01-31T17:48:06.166Z,97468.53
2023-01-31T17:50:36.268Z,97465.28
2023-01-31T17:53:04.710Z,97460.13
2023-01-31T17:55:33.116Z,97463.63
2023-01-31T17:58:01.309Z,97458.75
2023-01-31T18:00:29.646Z,97457.09
2023-01-31T18:02:58.955Z,97457.69
2023-01-31T18:05:38.314Z,97458.47
2023-01-31T18:08:07.204Z,97453.88
2023-01-31T18:10:35.701Z,97455.50
2023-01-31T18:13:04.105Z,97474.69
2023-01-31T18:15:32.686Z,97473.34
2023-01-31T18:18:01.087Z,97480.09
2023-01-31T18:20:31.089Z,97476.00
2023-01-31T18:22:59.731Z,97471.13
2023-01-31T18:25:27.919Z,97474.88
2023-01-31T18:27:56.188Z,97456.75
2023-01-31T18:30:24.583Z,97461.31
2023-01-31T18:32:52.977Z,97466.19
2023-01-31T18:35:21.894Z,97461.84
2023-01-31T18:37:51.773Z,97466.44
2023-01-31T18:40:20.177Z,97451.03
2023-01-31T18:42:48.464Z,97462.97
2023-01-31T18:45:17.382Z,97453.56
2023-01-31T18:47:45.992Z,97447.06
2023-01-31T18:50:14.661Z,97456.81
2023-01-31T18:52:43.878Z,97451.69
2023-01-31T18:55:13.662Z,97457.59
2023-01-31T18:57:42.009Z,97466.28
2023-01-31T19:00:12.270Z,97472.75
2023-01-31T19:02:44.224Z,97465.78
2023-01-31T19:05:13.116Z,97479.28
2023-01-31T19:07:41.409Z,97470.34
2023-01-31T19:10:11.683Z,97466.31
2023-01-31T19:12:41.800Z,97467.38
2023-01-31T19:15:13.458Z,97464.66
2023-01-31T19:17:42.154Z,97471.69
2023-01-31T19:20:12.730Z,97467.38
2023-01-31T19:22:41.389Z,97454.13
2023-01-31T19:25:11.165Z,97461.16
2023-01-31T19:27:43.623Z,97467.88
2023-01-31T19:30:13.610Z,97463.03
2023-01-31T19:32:41.890Z,97463.34
2023-01-31T19:35:10.996Z,97458.47
2023-01-31T19:37:39.588Z,97454.13
2023-01-31T19:40:09.871Z,97462.78
2023-01-31T19:42:38.487Z,97449.81
2023-01-31T19:45:11.621Z,97446.31
2023-01-31T19:47:50.267Z,97452.78
2023-01-31T19:50:20.327Z,97457.69
2023-01-31T19:52:49.187Z,97449.31
2023-01-31T19:55:17.954Z,97453.88
2023-01-31T19:57:47.614Z,97454.41
2023-01-31T20:00:18.723Z,97445.22
2023-01-31T20:02:47.223Z,97451.94
2023-01-31T20:05:15.528Z,97437.63
2023-01-31T20:07:44.042Z,97442.75
2023-01-31T20:10:14.828Z,97441.94
2023-01-31T20:12:44.617Z,97443.56
2023-01-31T20:15:13.371Z,97442.50
2023-01-31T20:17:43.062Z,97448.44
2023-01-31T20:20:12.872Z,97444.38
2023-01-31T20:22:42.081Z,97451.13
2023-01-31T20:25:11.405Z,97460.31
2023-01-31T20:27:40.279Z,97456.00
2023-01-31T20:30:10.482Z,97467.59
2023-01-31T20:32:39.313Z,97464.38
2023-01-31T20:35:10.511Z,97461.91
2023-01-31T20:37:40.296Z,97452.72
2023-01-31T20:40:10.881Z,97441.94
2023-01-31T20:42:39.286Z,97443.03
2023-01-31T20:45:09.111Z,97456.25
2023-01-31T20:47:38.009Z,97444.09
2023-01-31T20:50:08.635Z,97452.72
2023-01-31T20:52:37.816Z,97465.69
2023-01-31T20:55:07.953Z,97460.03
2023-01-31T20:57:36.440Z,97461.41
2023-01-31T21:00:06.868Z,97469.47
2023-01-31T21:02:35.191Z,97466.19
2023-01-31T21:05:03.759Z,97457.53
2023-01-31T21:07:34.021Z,97445.88
2023-01-31T21:10:02.606Z,97439.13
2023-01-31T21:12:30.971Z,97443.63
2023-01-31T21:15:02.531Z,97446.53
2023-01-31T21:17:40.052Z,97433.53
2023-01-31T21:20:11.227Z,97432.41
2023-01-31T21:22:41.263Z,97438.88
2023-01-31T21:25:09.983Z,97428.09
2023-01-31T21:27:38.323Z,97415.38
2023-01-31T21:30:08.421Z,97426.13
2023-01-31T21:32:36.787Z,97413.97
2023-01-31T21:35:05.513Z,97416.66
2023-01-31T21:37:33.861Z,97430.69
2023-01-31T21:40:04.378Z,97430.47
2023-01-31T21:42:31.717Z,97437.50
2023-01-31T21:45:00.078Z,97435.34
2023-01-31T21:47:29.138Z,97430.78
2023-01-31T21:49:57.351Z,97430.81
2023-01-31T21:52:26.075Z,97426.78
2023-01-31T21:54:54.535Z,97439.22
2023-01-31T21:57:24.186Z,97435.75
2023-01-31T21:59:52.579Z,97446.31
2023-01-31T22:02:21.396Z,97431.44
2023-01-31T22:04:49.821Z,97452.75
2023-01-31T22:07:18.386Z,97443.34
2023-01-31T22:09:47.296Z,97439.28
2023-01-31T22:12:15.817Z,97441.75
2023-01-31T22:14:45.807Z,97431.25
2023-01-31T22:17:14.457Z,97435.03
2023-01-31T22:19:43.043Z,97456.38
2023-01-31T22:22:14.249Z,97446.13
2023-01-31T22:24:42.519Z,97456.38
2023-01-31T22:27:10.982Z,97452.63
2023-01-31T22:29:39.965Z,97445.56
2023-01-31T22:32:12.280Z,97442.06
2023-01-31T22:34:40.794Z,97445.56
2023-01-31T22:37:08.972Z,97452.53
2023-01-31T22:39:37.247Z,97447.66
2023-01-31T22:42:06.535Z,97459.53
2023-01-31T22:44:34.884Z,97457.63
2023-01-31T22:47:03.142Z,97462.22
2023-01-31T22:49:32.800Z,97468.69
2023-01-31T22:52:03.271Z,97466.81
2023-01-31T22:54:31.663Z,97454.69
2023-01-31T22:57:01.093Z,97446.59
2023-01-31T22:59:29.399Z,97444.47
2023-01-31T23:01:57.684Z,97445.00
2023-01-31T23:04:26.093Z,97435.00
2023-01-31T23:06:55.762Z,97444.44
2023-01-31T23:09:24.140Z,97442.25
2023-01-31T23:11:52.482Z,97433.06
2023-01-31T23:14:21.665Z,97433.06
2023-01-31T23:17:07.611Z,97435.50
2023-01-31T23:19:37.906Z,97435.25
2023-01-31T23:22:07.560Z,97425.78
2023-01-31T23:24:37.121Z,97422.28
2023-01-31T23:27:07.600Z,97416.09
2023-01-31T23:29:36.036Z,97425.25
2023-01-31T23:32:04.696Z,97411.50
2023-01-31T23:34:33.402Z,97410.97
2023-01-31T23:37:02.162Z,97417.69
2023-01-31T23:39:31.880Z,97420.94
2023-01-31T23:42:00.584Z,97431.75
2023-01-31T23:44:28.885Z,97430.41
2023-01-31T23:46:57.247Z,97433.63
2023-01-31T23:49:25.631Z,97424.44
2023-01-31T23:51:53.898Z,97420.94
2023-01-31T23:54:22.235Z,97414.97
2023-01-31T23:56:52.193Z,97414.44
2023-01-31T23:59:21.160Z,97404.97
